createdAt,value
2019-05-01T00:01:23.584Z,40.00
2019-05-01T00:04:01.720Z,36.55
2019-05-01T00:06:39.990Z,45.05
2019-05-01T00:09:14.249Z,40.73
2019-05-01T00:11:50.097Z,30.75
2019-05-01T00:14:24.266Z,29.67
2019-05-01T00:16:59.427Z,29.10
2019-05-01T00:19:33.423Z,30.82
2019-05-01T00:22:07.587Z,32.20
2019-05-01T00:24:41.981Z,32.15
2019-05-01T00:27:16.222Z,32.67
2019-05-01T00:29:50.369Z,33.70
2019-05-01T00:32:24.550Z,38.40
2019-05-01T00:34:58.652Z,42.83
2019-05-01T00:37:32.916Z,46.70
2019-05-01T00:40:07.897Z,49.90
2019-05-01T00:42:42.244Z,46.63
2019-05-01T00:45:16.427Z,46.37
2019-05-01T00:47:50.641Z,62.38
2019-05-01T00:50:25.139Z,65.40
2019-05-01T00:52:59.610Z,48.05
2019-05-01T00:55:41.814Z,36.15
2019-05-01T00:58:17.251Z,32.15
2019-05-01T01:00:55.563Z,28.65
2019-05-01T01:03:29.688Z,28.85
2019-05-01T01:06:03.983Z,28.32
2019-05-01T01:08:38.560Z,25.97
2019-05-01T01:11:12.991Z,21.05
2019-05-01T01:13:47.103Z,21.30
2019-05-01T01:16:21.368Z,19.55
2019-05-01T01:18:55.667Z,17.12
2019-05-01T01:21:29.830Z,16.10
2019-05-01T01:24:08.878Z,14.73
2019-05-01T01:26:43.228Z,14.40
2019-05-01T01:29:17.717Z,13.80
2019-05-01T01:32:06.659Z,15.85
2019-05-01T01:34:41.135Z,15.25
2019-05-01T01:37:15.799Z,13.18
2019-05-01T01:39:50.214Z,12.00
2019-05-01T01:42:24.458Z,15.48
2019-05-01T01:45:12.229Z,13.98
2019-05-01T01:48:04.781Z,13.08
2019-05-01T01:50:38.989Z,13.70
2019-05-01T01:53:13.204Z,12.73
2019-05-01T01:55:48.579Z,15.63
2019-05-01T01:58:42.922Z,13.70
2019-05-01T02:01:21.834Z,13.35
2019-05-01T02:04:06.780Z,13.72
2019-05-01T02:06:43.374Z,12.88
2019-05-01T02:09:18.270Z,12.82
2019-05-01T02:12:05.208Z,11.78
2019-05-01T02:14:39.495Z,13.80
2019-05-01T02:17:14.133Z,13.15
2019-05-01T02:19:48.755Z,13.05
2019-05-01T02:22:23.292Z,12.58
2019-05-01T02:25:00.898Z,14.58
2019-05-01T02:27:40.741Z,12.45
2019-05-01T02:30:17.594Z,11.97
2019-05-01T02:32:54.393Z,13.03
2019-05-01T02:35:30.483Z,12.23
2019-05-01T02:38:04.806Z,11.93
2019-05-01T02:41:02.433Z,12.43
2019-05-01T02:43:40.816Z,11.80
2019-05-01T02:46:17.723Z,11.55
2019-05-01T02:48:54.395Z,11.00
2019-05-01T02:51:28.810Z,11.45
2019-05-01T02:54:03.461Z,10.93
2019-05-01T02:56:39.680Z,11.05
2019-05-01T02:59:13.968Z,11.28
2019-05-01T03:01:48.264Z,11.30
2019-05-01T03:04:22.669Z,11.75
2019-05-01T03:06:56.807Z,11.25
2019-05-01T03:09:31.331Z,11.78
2019-05-01T03:12:05.632Z,11.40
2019-05-01T03:14:49.414Z,11.12
2019-05-01T03:17:38.558Z,11.53
2019-05-01T03:20:14.550Z,11.60
2019-05-01T03:22:53.056Z,11.57
2019-05-01T03:25:27.630Z,11.18
2019-05-01T03:28:02.356Z,11.03
2019-05-01T03:30:38.959Z,10.93
2019-05-01T03:33:23.108Z,11.25
2019-05-01T03:35:57.950Z,10.95
2019-05-01T03:38:33.740Z,10.72
2019-05-01T03:41:08.346Z,10.80
2019-05-01T03:43:43.471Z,11.22
2019-05-01T03:46:18.182Z,11.15
2019-05-01T03:48:52.776Z,11.03
2019-05-01T03:51:27.945Z,10.85
2019-05-01T03:54:02.609Z,11.50
2019-05-01T03:56:36.886Z,11.55
2019-05-01T03:59:12.668Z,10.68
2019-05-01T04:01:48.302Z,10.48
2019-05-01T04:04:27.215Z,9.88
2019-05-01T04:07:04.693Z,10.18
2019-05-01T04:09:38.827Z,10.13
2019-05-01T04:12:21.057Z,10.00
2019-05-01T04:14:56.134Z,10.43
2019-05-01T04:17:37.543Z,10.23
2019-05-01T04:20:12.066Z,11.38
2019-05-01T04:22:48.964Z,10.82
2019-05-01T04:25:22.880Z,11.48
2019-05-01T04:27:59.923Z,11.35
2019-05-01T04:30:52.607Z,12.03
2019-05-01T04:33:31.905Z,11.95
2019-05-01T04:36:11.643Z,11.18
2019-05-01T04:38:49.792Z,11.97
2019-05-01T04:41:24.099Z,11.38
2019-05-01T04:43:58.250Z,11.15
2019-05-01T04:46:35.099Z,10.28
2019-05-01T04:49:11.278Z,10.75
2019-05-01T04:51:45.855Z,10.80
2019-05-01T04:54:20.026Z,9.78
2019-05-01T04:56:54.792Z,9.58
2019-05-01T04:59:29.224Z,9.90
2019-05-01T05:02:14.065Z,9.45
2019-05-01T05:04:52.657Z,9.40
2019-05-01T05:07:32.057Z,9.00
2019-05-01T05:10:07.207Z,9.20
2019-05-01T05:12:49.098Z,8.75
2019-05-01T05:15:36.940Z,8.58
2019-05-01T05:18:11.570Z,8.40
2019-05-01T05:20:45.847Z,8.80
2019-05-01T05:23:24.731Z,8.93
2019-05-01T05:25:59.260Z,9.10
2019-05-01T05:28:34.657Z,8.63
2019-05-01T05:31:10.319Z,8.98
2019-05-01T05:33:45.754Z,9.18
2019-05-01T05:36:19.887Z,9.18
2019-05-01T05:38:58.932Z,9.13
2019-05-01T05:41:34.368Z,8.38
2019-05-01T05:44:08.928Z,9.13
2019-05-01T05:46:45.217Z,8.70
2019-05-01T05:49:20.287Z,8.28
2019-05-01T05:51:57.681Z,9.30
2019-05-01T05:54:33.519Z,8.70
2019-05-01T05:57:21.454Z,9.45
2019-05-01T05:59:59.545Z,9.15
2019-05-01T06:02:40.029Z,9.50
2019-05-01T06:05:36.469Z,9.83
2019-05-01T06:08:24.210Z,8.90
2019-05-01T06:11:09.330Z,8.63
2019-05-01T06:13:56.974Z,9.90
2019-05-01T06:16:40.260Z,9.45
2019-05-01T06:19:20.724Z,8.75
2019-05-01T06:22:15.102Z,9.40
2019-05-01T06:24:53.314Z,8.85
2019-05-01T06:27:27.587Z,9.48
2019-05-01T06:30:02.273Z,9.20
2019-05-01T06:32:39.819Z,8.65
2019-05-01T06:35:13.114Z,8.95
2019-05-01T06:38:06.601Z,8.70
2019-05-01T06:40:48.172Z,7.90
2019-05-01T06:43:36.209Z,7.60
2019-05-01T06:46:14.740Z,7.12
2019-05-01T06:48:54.910Z,7.15
2019-05-01T06:51:41.083Z,8.25
2019-05-01T06:54:17.666Z,8.05
2019-05-01T06:56:52.244Z,7.83
2019-05-01T06:59:31.284Z,7.87
2019-05-01T07:02:03.339Z,7.65
2019-05-01T07:04:38.486Z,7.92
2019-05-01T07:07:25.333Z,6.42
2019-05-01T07:09:54.671Z,6.62
2019-05-01T07:12:31.601Z,5.90
2019-05-01T07:15:06.945Z,5.92
2019-05-01T07:17:47.931Z,6.03
2019-05-01T07:20:38.046Z,6.05
2019-05-01T07:23:17.305Z,6.30
2019-05-01T07:25:49.640Z,5.83
2019-05-01T07:28:28.790Z,5.85
2019-05-01T07:31:05.039Z,6.03
2019-05-01T07:33:46.932Z,5.62
2019-05-01T07:36:24.752Z,5.65
2019-05-01T07:38:59.076Z,5.45
2019-05-01T07:41:37.701Z,4.97
2019-05-01T07:47:19.693Z,5.22
2019-05-01T07:49:59.114Z,5.12
2019-05-01T07:52:34.738Z,5.30
2019-05-01T07:55:13.135Z,5.67
2019-05-01T07:57:45.216Z,5.40
2019-05-01T08:00:29.094Z,5.03
2019-05-01T08:03:08.666Z,5.28
2019-05-01T08:05:48.564Z,4.78
2019-05-01T08:08:24.277Z,5.05
2019-05-01T08:10:59.939Z,4.60
2019-05-01T08:13:35.097Z,4.92
2019-05-01T08:16:10.005Z,4.95
2019-05-01T08:18:46.110Z,5.30
2019-05-01T08:21:40.085Z,6.20
2019-05-01T08:24:26.709Z,5.90
2019-05-01T08:27:02.083Z,5.00
2019-05-01T08:29:42.052Z,4.40
2019-05-01T08:32:26.488Z,5.20
2019-05-01T08:35:06.122Z,5.37
2019-05-01T08:37:40.765Z,6.53
2019-05-01T08:40:37.250Z,6.53
2019-05-01T08:43:13.710Z,5.95
2019-05-01T08:46:03.865Z,5.53
2019-05-01T08:48:39.523Z,6.47
2019-05-01T08:51:15.161Z,6.70
2019-05-01T08:53:52.763Z,6.03
2019-05-01T08:56:25.440Z,6.33
2019-05-01T08:59:01.147Z,6.35
2019-05-01T09:01:38.021Z,6.35
2019-05-01T09:04:14.077Z,5.78
2019-05-01T09:06:51.591Z,6.78
2019-05-01T09:09:26.089Z,6.55
2019-05-01T09:12:01.620Z,6.70
2019-05-01T09:14:37.681Z,6.10
2019-05-01T09:17:12.431Z,5.53
2019-05-01T09:19:46.696Z,5.80
2019-05-01T09:22:23.915Z,5.72
2019-05-01T09:25:00.063Z,6.00
2019-05-01T09:27:50.608Z,6.22
2019-05-01T09:30:26.966Z,5.10
2019-05-01T09:33:06.864Z,4.85
2019-05-01T09:35:45.407Z,4.97
2019-05-01T09:38:19.653Z,5.40
2019-05-01T09:40:53.811Z,6.40
2019-05-01T09:43:31.023Z,5.55
2019-05-01T09:46:04.206Z,4.33
2019-05-01T09:48:39.274Z,4.30
2019-05-01T09:51:19.836Z,4.22
2019-05-01T09:54:05.606Z,4.53
2019-05-01T09:56:38.571Z,4.37
2019-05-01T09:59:17.520Z,5.10
2019-05-01T10:01:50.625Z,7.92
2019-05-01T10:04:29.640Z,8.53
2019-05-01T10:07:02.194Z,10.65
2019-05-01T10:09:39.642Z,11.25
2019-05-01T10:12:13.595Z,9.83
2019-05-01T10:14:48.828Z,9.13
2019-05-01T10:17:23.076Z,8.60
2019-05-01T10:19:57.462Z,13.13
2019-05-01T10:22:43.161Z,7.50
2019-05-01T10:25:20.671Z,7.25
2019-05-01T10:28:07.017Z,6.17
2019-05-01T10:30:55.530Z,5.92
2019-05-01T10:33:32.719Z,6.10
2019-05-01T10:36:17.778Z,8.50
2019-05-01T10:38:47.562Z,8.18
2019-05-01T10:41:22.073Z,6.28
2019-05-01T10:43:58.067Z,5.58
2019-05-01T10:46:32.621Z,5.28
2019-05-01T10:49:07.314Z,3.92
2019-05-01T10:51:41.440Z,4.62
2019-05-01T10:54:15.670Z,4.60
2019-05-01T10:56:50.105Z,4.47
2019-05-01T10:59:24.512Z,4.95
2019-05-01T11:02:00.216Z,4.08
2019-05-01T11:04:37.413Z,4.03
2019-05-01T11:07:14.387Z,4.05
2019-05-01T11:09:55.751Z,7.17
2019-05-01T11:12:30.002Z,9.43
2019-05-01T11:15:04.596Z,10.20
2019-05-01T11:17:39.034Z,10.72
2019-05-01T11:20:14.331Z,11.08
2019-05-01T11:22:49.548Z,12.90
2019-05-01T11:25:26.601Z,11.93
2019-05-01T11:28:03.133Z,13.58
2019-05-01T11:30:55.934Z,16.77
2019-05-01T11:33:42.406Z,21.90
2019-05-01T11:36:37.174Z,18.37
2019-05-01T11:39:25.507Z,15.60
2019-05-01T11:42:09.961Z,15.10
2019-05-01T11:44:44.344Z,13.75
2019-05-01T11:47:26.008Z,13.25
2019-05-01T11:50:01.540Z,13.85
2019-05-01T11:52:39.781Z,13.53
2019-05-01T11:55:15.757Z,12.53
2019-05-01T11:57:50.908Z,12.60
2019-05-01T12:00:28.189Z,11.20
2019-05-01T12:03:04.468Z,12.82
2019-05-01T12:05:39.238Z,13.60
2019-05-01T12:08:13.793Z,15.08
2019-05-01T12:10:49.666Z,13.68
2019-05-01T12:13:25.672Z,13.45
2019-05-01T12:16:07.071Z,13.20
2019-05-01T12:18:52.146Z,11.97
2019-05-01T12:21:45.773Z,12.07
2019-05-01T12:24:23.675Z,16.50
2019-05-01T12:27:01.165Z,10.72
2019-05-01T12:29:35.810Z,11.20
2019-05-01T12:32:11.892Z,11.45
2019-05-01T12:34:57.000Z,12.60
2019-05-01T12:37:37.996Z,11.78
2019-05-01T12:40:20.485Z,11.48
2019-05-01T12:42:55.817Z,13.05
2019-05-01T12:45:31.394Z,13.85
2019-05-01T12:48:06.082Z,12.80
2019-05-01T12:50:45.955Z,14.50
2019-05-01T12:53:21.502Z,23.07
2019-05-01T12:56:04.690Z,25.85
2019-05-01T12:58:43.653Z,15.00
2019-05-01T13:01:20.190Z,18.60
2019-05-01T13:03:59.329Z,24.82
2019-05-01T13:06:48.356Z,27.87
2019-05-01T13:09:11.733Z,14.80
2019-05-01T13:11:47.328Z,12.15
2019-05-01T13:14:21.788Z,11.90
2019-05-01T13:16:58.454Z,38.15
2019-05-01T13:19:33.894Z,31.23
2019-05-01T13:22:09.691Z,19.98
2019-05-01T13:25:00.665Z,23.75
2019-05-01T13:27:38.069Z,22.70
2019-05-01T13:30:30.412Z,29.42
2019-05-01T13:33:08.590Z,14.58
2019-05-01T13:35:45.014Z,13.45
2019-05-01T13:38:19.501Z,11.90
2019-05-01T13:40:56.475Z,12.68
2019-05-01T13:43:33.147Z,12.70
2019-05-01T13:46:09.891Z,67.25
2019-05-01T13:48:44.336Z,130.18
2019-05-01T13:51:25.601Z,41.73
2019-05-01T13:54:14.768Z,54.45
2019-05-01T13:56:53.998Z,48.10
2019-05-01T13:59:35.596Z,103.42
2019-05-01T14:02:12.065Z,55.58
2019-05-01T14:04:48.809Z,54.03
2019-05-01T14:07:26.457Z,34.40
2019-05-01T14:10:01.854Z,28.60
2019-05-01T14:12:37.467Z,26.02
2019-05-01T14:15:12.950Z,18.67
2019-05-01T14:17:49.496Z,20.65
2019-05-01T14:20:41.247Z,13.18
2019-05-01T14:23:22.517Z,13.95
2019-05-01T14:26:08.401Z,19.95
2019-05-01T14:28:46.300Z,14.43
2019-05-01T14:31:24.968Z,14.13
2019-05-01T14:34:01.621Z,13.78
2019-05-01T14:36:37.396Z,24.55
2019-05-01T14:39:12.693Z,37.00
2019-05-01T14:41:57.540Z,23.95
2019-05-01T14:44:37.068Z,15.00
2019-05-01T14:47:12.515Z,13.50
2019-05-01T14:49:51.956Z,14.53
2019-05-01T14:52:29.044Z,20.80
2019-05-01T14:55:05.709Z,38.33
2019-05-01T14:57:40.199Z,56.55
2019-05-01T15:00:15.077Z,136.92
2019-05-01T15:02:49.606Z,62.70
2019-05-01T15:05:28.682Z,63.40
2019-05-01T15:08:04.083Z,44.38
2019-05-01T15:10:39.705Z,34.85
2019-05-01T15:13:32.664Z,35.50
2019-05-01T15:16:11.592Z,43.10
2019-05-01T15:19:05.230Z,42.90
2019-05-01T15:21:43.532Z,29.25
2019-05-01T15:24:18.097Z,23.10
2019-05-01T15:26:56.641Z,20.88
2019-05-01T15:29:34.282Z,25.55
2019-05-01T15:32:14.322Z,23.25
2019-05-01T15:34:51.483Z,22.45
2019-05-01T15:37:28.660Z,20.65
2019-05-01T15:40:10.054Z,19.32
2019-05-01T15:42:48.150Z,19.62
2019-05-01T15:45:23.539Z,18.80
2019-05-01T15:48:02.139Z,17.87
2019-05-01T15:50:44.806Z,18.98
2019-05-01T15:53:21.774Z,20.30
2019-05-01T15:55:59.082Z,39.03
2019-05-01T15:58:34.948Z,22.77
2019-05-01T16:01:12.202Z,18.73
2019-05-01T16:03:48.348Z,18.30
2019-05-01T16:06:26.388Z,19.67
2019-05-01T16:09:00.988Z,19.65
2019-05-01T16:11:54.941Z,21.20
2019-05-01T16:14:33.196Z,22.90
2019-05-01T16:17:15.550Z,21.00
2019-05-01T16:19:50.940Z,15.60
2019-05-01T16:22:35.352Z,17.23
2019-05-01T16:25:11.358Z,33.37
2019-05-01T16:27:46.932Z,93.92
2019-05-01T16:30:25.920Z,39.33
2019-05-01T16:33:02.525Z,27.85
2019-05-01T16:35:39.062Z,21.37
2019-05-01T16:38:24.217Z,17.82
2019-05-01T16:41:14.091Z,14.63
2019-05-01T16:43:56.962Z,13.05
2019-05-01T16:46:36.999Z,12.07
2019-05-01T16:49:12.093Z,15.75
2019-05-01T16:51:51.893Z,15.93
2019-05-01T16:54:30.077Z,15.08
2019-05-01T16:57:04.524Z,17.50
2019-05-01T16:59:40.127Z,13.83
2019-05-01T17:02:32.442Z,14.20
2019-05-01T17:05:28.471Z,12.28
2019-05-01T17:08:08.841Z,13.18
2019-05-01T18:28:24.977Z,8.83
2019-05-01T18:31:01.209Z,9.58
2019-05-01T18:33:37.942Z,9.98
2019-05-01T18:36:25.984Z,9.50
2019-05-01T18:39:15.804Z,9.30
2019-05-01T18:41:49.572Z,11.35
2019-05-01T18:44:23.584Z,12.23
2019-05-01T18:46:57.684Z,11.93
2019-05-01T18:49:32.838Z,12.82
2019-05-01T18:52:07.275Z,16.07
2019-05-01T18:54:41.749Z,18.37
2019-05-01T18:57:19.822Z,21.27
2019-05-01T18:59:54.170Z,31.23
2019-05-01T19:02:29.207Z,86.12
2019-05-01T19:05:04.179Z,153.57
2019-05-01T19:07:42.549Z,158.10
2019-05-01T19:10:17.780Z,81.45
2019-05-01T19:12:59.040Z,51.15
2019-05-01T19:18:05.671Z,21.80
2019-05-01T19:20:40.772Z,14.05
2019-05-01T19:23:14.866Z,12.90
2019-05-01T19:25:49.220Z,12.80
2019-05-01T19:28:25.245Z,11.60
2019-05-01T19:30:59.297Z,11.38
2019-05-01T19:33:33.435Z,10.03
2019-05-01T19:36:08.065Z,9.83
2019-05-01T19:38:43.064Z,10.13
2019-05-01T19:41:37.346Z,10.30
2019-05-01T19:44:13.849Z,9.78
2019-05-01T19:46:47.849Z,9.83
2019-05-01T19:49:24.778Z,9.85
2019-05-01T19:52:00.490Z,9.08
2019-05-01T19:54:33.389Z,9.90
2019-05-01T19:57:07.684Z,11.15
2019-05-01T19:59:41.838Z,10.38
2019-05-01T20:02:22.077Z,8.98
2019-05-01T20:04:53.155Z,10.25
2019-05-01T20:07:27.256Z,9.73
2019-05-01T20:10:01.359Z,10.10
2019-05-01T20:12:36.686Z,10.23
2019-05-01T20:15:10.737Z,9.98
2019-05-01T20:20:17.270Z,10.28
2019-05-01T20:22:53.317Z,10.18
2019-05-01T20:25:26.682Z,10.30
2019-05-01T20:28:00.640Z,9.40
2019-05-01T20:33:09.433Z,9.35
2019-05-01T20:38:16.408Z,9.63
2019-05-01T20:40:50.609Z,10.20
2019-05-01T20:43:24.846Z,9.85
2019-05-01T20:45:58.978Z,8.80
2019-05-01T20:48:32.870Z,9.35
2019-05-01T20:51:06.780Z,9.65
2019-05-01T20:56:18.024Z,9.33
2019-05-01T20:58:52.263Z,8.33
2019-05-01T21:01:28.281Z,9.23
2019-05-01T21:04:02.716Z,8.80
2019-05-01T21:06:45.694Z,8.60
2019-05-01T21:09:21.859Z,8.50
2019-05-01T21:12:05.474Z,8.68
2019-05-01T21:14:36.853Z,8.83
2019-05-01T21:17:13.709Z,9.28
2019-05-01T21:19:51.262Z,8.40
2019-05-01T21:22:25.354Z,8.70
2019-05-01T21:25:00.493Z,8.63
2019-05-01T21:27:34.514Z,10.08
2019-05-01T21:30:09.540Z,9.70
2019-05-01T21:32:44.504Z,10.50
2019-05-01T21:35:18.597Z,9.35
2019-05-01T21:37:52.648Z,9.35
2019-05-01T21:40:37.745Z,9.40
2019-05-01T21:43:03.212Z,9.83
2019-05-01T21:45:37.506Z,9.70
2019-05-01T21:48:13.235Z,9.48
2019-05-01T21:50:46.799Z,10.35
2019-05-01T21:53:20.880Z,9.45
2019-05-01T21:56:02.050Z,9.48
2019-05-01T21:58:35.873Z,8.93
2019-05-01T22:01:12.494Z,8.98
2019-05-01T22:03:46.479Z,9.03
2019-05-01T22:06:21.291Z,8.80
2019-05-01T22:08:57.378Z,9.85
2019-05-01T22:11:32.992Z,10.23
2019-05-01T22:14:07.945Z,10.10
2019-05-01T22:16:42.307Z,10.15
2019-05-01T22:19:17.820Z,10.20
2019-05-01T22:21:53.121Z,10.10
2019-05-01T22:24:28.308Z,10.40
2019-05-01T22:27:03.438Z,9.85
2019-05-01T22:29:40.785Z,10.43
2019-05-01T22:32:19.741Z,9.90
2019-05-01T22:34:55.083Z,9.30
2019-05-01T22:37:30.208Z,9.73
2019-05-01T22:40:05.867Z,9.53
2019-05-01T22:42:40.016Z,9.03
2019-05-01T22:45:19.549Z,8.28
2019-05-01T22:47:54.687Z,8.75
2019-05-01T22:50:30.097Z,7.72
2019-05-01T22:53:07.952Z,16.23
2019-05-01T22:55:39.715Z,52.55
2019-05-01T22:58:13.912Z,34.67
2019-05-01T23:00:49.422Z,28.57
2019-05-01T23:03:31.997Z,20.95
2019-05-01T23:06:07.701Z,31.07
2019-05-01T23:08:42.351Z,18.35
2019-05-01T23:11:19.974Z,14.33
2019-05-01T23:13:52.651Z,12.03
2019-05-01T23:16:29.033Z,13.93
2019-05-01T23:19:03.230Z,11.43
2019-05-01T23:24:10.282Z,12.90
2019-05-01T23:26:48.110Z,10.38
2019-05-01T23:29:20.519Z,10.15
2019-05-01T23:31:54.646Z,9.00
2019-05-01T23:34:29.625Z,9.90
2019-05-01T23:37:03.640Z,11.40
2019-05-01T23:39:40.404Z,11.93
2019-05-01T23:42:13.036Z,13.48
2019-05-01T23:44:47.150Z,17.15
2019-05-01T23:47:21.029Z,30.90
2019-05-01T23:52:27.847Z,17.27
2019-05-01T23:55:01.881Z,17.10
2019-05-01T23:57:36.971Z,18.60
